Skip Navigation Links Skip Navigation Links

Current Weather

Karl Stefan Memorial, Norfolk, Neb.

For information only: do not use for flight planning or navigation.
Latest weather
Observation time Monday, October 18, 2021 2:56 PM CDT
Local time Monday, October 18, 2021 3:24 PM CDT
Flight conditions Visual Meteorological Conditions
Winds
Wind direction South (170°)
Wind speed 21 mph
Wind gusting to 30 mph
Peak wind speed 34 mph, 2:10 PM
Peak wind direction South (170°)
Visibility 10 mi.
Sky condition
Ceiling unlimited
Sky clear
Temperature 76°F
Dewpoint 33°F
Altimeter 29.87 in.Hg
Derived measurements
Relative humidity 21%
Density altitude 2822 ft.
Sea-level pressure 29.84 in.Hg
Remarks
Fully automated report.
Automated weather observing station with precipitation discriminator.
METAR KOFK 181956Z AUTO 17018G26KT 10SM CLR 24/01 A2987 RMK AO2 PK WND 17030/1910 SLP106 T02440006

Settings

Location code

InnerDrive.Weather 4.0.6770.0 Release CLR 4.0.30319.42000
Copyright ©2018 Inner Drive Technology. All rights reserved. Portions Copyright ©1986-2018 David Braverman.

Find weather

Site navigation


Skip Navigation Links

Place info

Page info

PayPal - The safer, easier way to pay online!

Return home.

Copyright ©2021 Inner Drive Technology. Purveyors of fine, hand-crafted computer software. Page printed 2021-10-18T20:24:40 UTC.